Pagrindinis puslapis
METAR-TAF:

METAR-TAF

Oro uostai :

Puerto Karenjas, Kolumbija

platuma: 06-10N, ilguma: 067-30W, Aukštis: 55 m

Dabartinis oras

Ataskaita buvo paskelbta 1 valandą ir 25 minutes, ne 01:00 UTC
Ramus vėjas
Temperatūra 29°C
Drėgmė 74%
Slėgis 1009 hPa
Matomumas 10 km arba daugiau
Išsisklaidę debesys ne aukštis 1500 ft
Išsisklaidę debesys ne aukštis 7000 ft

METAR: SKPC 210100Z 00000KT 9999 SCT015 SCT070 29/24 A2980 RMK LTNG/SW

Laikas: 21:25 (02:25 UTC)


TAF: trūkstamas

Orai ataskaitas ir orų prognozės (METAR, TAF).

turimą stotys yra geltonos ir raudonos taškus žemėlapyje.

Perkelti pele per norėdami pamatyti stoties vardą.

Tada spustelėkite, norėdami matyti oro stebėjimo ir prognozės.

Norėdami pakeisti žemėlapį: spustelėkite ant žalios mygtukų su juodo kryžiaus žemyn,; žalią mygtuką su brūkšneliu, jei norite nutolinti; arba žalių rodyklių gretimoms žemėlapius.


METAR-TAF: